createdAt,value
2023-03-27T00:00:59.704Z,4.07
2023-03-27T00:02:01.753Z,3.70
2023-03-27T00:03:03.497Z,3.67
2023-03-27T00:04:05.598Z,3.70
2023-03-27T00:05:08.076Z,3.73
2023-03-27T00:06:17.042Z,3.47
2023-03-27T00:07:20.027Z,3.07
2023-03-27T00:08:21.566Z,3.43
2023-03-27T00:09:23.135Z,3.67
2023-03-27T00:10:24.853Z,3.60
2023-03-27T00:11:26.660Z,3.40
2023-03-27T00:12:28.261Z,3.47
2023-03-27T00:13:30.580Z,3.00
2023-03-27T00:14:32.365Z,3.57
2023-03-27T00:15:36.619Z,3.07
2023-03-27T00:16:38.209Z,3.40
2023-03-27T00:17:39.846Z,2.67
2023-03-27T00:18:41.586Z,2.57
2023-03-27T00:19:43.901Z,2.93
2023-03-27T00:20:45.617Z,2.90
2023-03-27T00:21:47.866Z,2.80
2023-03-27T00:22:55.452Z,2.50
2023-03-27T00:23:57.119Z,3.17
2023-03-27T00:24:58.663Z,2.70
2023-03-27T00:26:00.478Z,2.80
2023-03-27T00:27:02.563Z,2.80
2023-03-27T00:28:04.324Z,2.83
2023-03-27T00:29:06.956Z,2.87
2023-03-27T00:30:09.166Z,2.80
2023-03-27T00:31:15.644Z,3.20
2023-03-27T00:32:17.153Z,2.97
2023-03-27T00:33:19.096Z,3.27
2023-03-27T00:34:20.816Z,3.17
2023-03-27T00:35:23.908Z,2.83
2023-03-27T00:36:26.018Z,2.73
2023-03-27T00:37:27.546Z,2.80
2023-03-27T00:38:29.675Z,2.80
2023-03-27T00:39:31.276Z,3.03
2023-03-27T00:40:32.910Z,3.00
2023-03-27T00:41:34.526Z,3.00
2023-03-27T00:42:36.250Z,3.03
2023-03-27T00:43:43.577Z,3.13
2023-03-27T00:44:45.203Z,2.80
2023-03-27T00:45:48.144Z,2.93
2023-03-27T00:46:49.962Z,2.40
2023-03-27T00:47:56.677Z,3.00
2023-03-27T00:49:01.974Z,2.40
2023-03-27T00:50:10.504Z,3.07
2023-03-27T00:51:12.482Z,3.00
2023-03-27T00:52:16.810Z,3.27
2023-03-27T00:53:23.092Z,3.27
2023-03-27T00:54:29.983Z,3.20
2023-03-27T00:55:34.201Z,2.90
2023-03-27T00:56:38.706Z,3.07
2023-03-27T00:57:43.342Z,2.90
2023-03-27T00:58:49.556Z,2.97
2023-03-27T00:59:54.327Z,3.20
2023-03-27T01:00:57.317Z,2.93
2023-03-27T01:02:00.386Z,2.73
2023-03-27T01:03:05.804Z,2.90
2023-03-27T01:04:09.145Z,2.70
2023-03-27T01:05:11.530Z,2.67
2023-03-27T01:06:16.861Z,2.70
2023-03-27T01:07:19.835Z,2.73
2023-03-27T01:08:22.301Z,3.10
2023-03-27T01:09:27.232Z,2.93
2023-03-27T01:10:40.749Z,3.40
2023-03-27T01:12:07.783Z,3.53
2023-03-27T01:13:12.353Z,3.20
2023-03-27T01:14:35.689Z,3.73
2023-03-27T01:15:50.294Z,3.67
2023-03-27T01:16:57.735Z,4.10
2023-03-27T01:18:38.288Z,3.27
2023-03-27T01:19:42.880Z,3.53
2023-03-27T01:21:17.950Z,3.80
2023-03-27T01:22:38.010Z,3.80
2023-03-27T01:24:08.310Z,3.53
2023-03-27T01:25:18.860Z,3.77
2023-03-27T01:26:35.954Z,3.67
2023-03-27T01:28:22.941Z,4.00
2023-03-27T01:29:30.438Z,3.83
2023-03-27T01:30:53.628Z,4.20
2023-03-27T01:32:05.268Z,3.80
2023-03-27T01:33:57.960Z,3.70
2023-03-27T01:35:08.630Z,3.83
2023-03-27T01:36:10.124Z,3.70
2023-03-27T01:37:53.115Z,3.90
2023-03-27T01:39:27.393Z,3.87
2023-03-27T01:40:39.179Z,4.03
2023-03-27T01:42:05.135Z,4.10
2023-03-27T01:43:18.227Z,4.07
2023-03-27T01:44:26.893Z,3.57
2023-03-27T01:45:53.217Z,4.10
2023-03-27T01:47:02.029Z,3.60
2023-03-27T01:48:03.554Z,3.90
2023-03-27T01:49:10.907Z,4.07
2023-03-27T01:50:24.716Z,4.33
2023-03-27T01:51:36.135Z,3.83
2023-03-27T01:52:42.081Z,3.97
2023-03-27T01:53:52.256Z,3.90
2023-03-27T01:54:58.414Z,4.03
2023-03-27T01:56:06.324Z,4.23
2023-03-27T01:57:17.674Z,4.07
2023-03-27T01:58:23.361Z,3.83
2023-03-27T01:59:29.161Z,4.30
2023-03-27T02:00:50.860Z,4.03
2023-03-27T02:02:00.854Z,3.83
2023-03-27T02:03:19.907Z,4.03
2023-03-27T02:04:28.919Z,4.10
2023-03-27T02:05:36.614Z,4.20
2023-03-27T02:06:44.552Z,3.70
2023-03-27T02:07:57.427Z,3.83
2023-03-27T02:09:05.213Z,3.80
2023-03-27T02:10:18.019Z,3.80
2023-03-27T02:11:22.933Z,3.67
2023-03-27T02:12:30.970Z,4.20
2023-03-27T02:13:40.874Z,4.27
2023-03-27T02:14:49.366Z,4.23
2023-03-27T02:15:52.311Z,4.10
2023-03-27T02:17:00.775Z,4.10
2023-03-27T02:18:10.045Z,4.47
2023-03-27T02:19:34.734Z,4.43
2023-03-27T02:20:38.711Z,3.87
2023-03-27T02:21:40.388Z,4.57
2023-03-27T02:22:43.816Z,4.10
2023-03-27T02:23:45.590Z,3.97
2023-03-27T02:24:49.039Z,4.50
2023-03-27T02:25:51.863Z,3.70
2023-03-27T02:27:09.240Z,4.20
2023-03-27T02:28:40.741Z,3.90
2023-03-27T02:29:58.940Z,4.47
2023-03-27T02:31:32.584Z,4.60
2023-03-27T02:32:47.938Z,4.10
2023-03-27T02:34:12.013Z,4.13
2023-03-27T02:35:29.513Z,4.03
2023-03-27T02:37:05.142Z,4.03
2023-03-27T02:38:20.481Z,4.50
2023-03-27T02:39:35.260Z,4.70
2023-03-27T02:41:04.538Z,4.20
2023-03-27T02:42:16.118Z,4.57
2023-03-27T02:43:37.881Z,4.63
2023-03-27T02:45:00.034Z,4.23
2023-03-27T02:46:35.967Z,4.47
2023-03-27T02:47:47.728Z,4.70
2023-03-27T02:48:57.105Z,4.60
2023-03-27T02:50:06.176Z,4.70
2023-03-27T02:51:25.552Z,4.90
2023-03-27T02:52:34.218Z,4.57
2023-03-27T02:53:42.845Z,4.53
2023-03-27T02:54:50.856Z,4.53
2023-03-27T02:55:57.239Z,4.53
2023-03-27T02:57:05.252Z,4.20
2023-03-27T02:58:12.101Z,4.23
2023-03-27T02:59:22.515Z,4.50
2023-03-27T03:00:28.069Z,4.60
2023-03-27T03:01:32.562Z,4.47
2023-03-27T03:02:34.662Z,4.57
2023-03-27T03:03:42.642Z,4.93
2023-03-27T03:04:50.461Z,5.30
2023-03-27T03:05:52.119Z,4.87
2023-03-27T03:06:54.228Z,4.50
2023-03-27T03:07:58.165Z,5.43
2023-03-27T03:09:03.134Z,4.77
2023-03-27T03:10:09.667Z,4.80
2023-03-27T03:11:14.336Z,5.30
2023-03-27T03:12:16.152Z,4.43
2023-03-27T03:13:18.022Z,5.27
2023-03-27T03:14:24.562Z,4.77
2023-03-27T03:15:26.098Z,5.47
2023-03-27T03:16:29.240Z,4.90
2023-03-27T03:17:30.959Z,5.30
2023-03-27T03:18:32.537Z,5.40
2023-03-27T03:19:34.115Z,5.17
2023-03-27T03:20:35.724Z,5.23
2023-03-27T03:21:37.661Z,5.23
2023-03-27T03:22:40.022Z,5.17
2023-03-27T03:23:41.594Z,4.67
2023-03-27T03:25:00.168Z,5.57
2023-03-27T03:26:03.091Z,6.03
2023-03-27T03:27:05.734Z,5.73
2023-03-27T03:28:09.792Z,5.17
2023-03-27T03:29:12.955Z,5.37
2023-03-27T03:30:17.018Z,6.13
2023-03-27T03:31:19.290Z,5.80
2023-03-27T03:32:21.035Z,5.50
2023-03-27T03:33:22.687Z,5.37
2023-03-27T03:34:28.642Z,5.57
2023-03-27T03:35:30.353Z,5.33
2023-03-27T03:36:33.233Z,4.77
2023-03-27T03:37:39.457Z,5.50
2023-03-27T03:38:46.170Z,5.20
2023-03-27T03:39:48.340Z,5.57
2023-03-27T03:40:52.126Z,5.00
2023-03-27T03:41:54.208Z,5.67
2023-03-27T03:42:55.936Z,5.80
2023-03-27T03:43:57.446Z,5.40
2023-03-27T03:44:58.953Z,5.47
2023-03-27T03:46:00.834Z,5.33
2023-03-27T03:47:02.572Z,4.40
2023-03-27T03:48:04.201Z,5.23
2023-03-27T03:49:06.608Z,4.80
2023-03-27T03:50:08.617Z,5.30
2023-03-27T03:51:10.215Z,5.60
2023-03-27T03:52:11.853Z,4.67
2023-03-27T03:53:15.427Z,4.80
2023-03-27T03:54:17.009Z,4.60
2023-03-27T03:55:18.567Z,4.57
2023-03-27T03:56:20.210Z,4.40
2023-03-27T03:57:21.721Z,4.70
2023-03-27T03:58:34.761Z,4.80
2023-03-27T03:59:36.818Z,4.37
2023-03-27T04:00:39.919Z,4.40
2023-03-27T04:01:41.630Z,4.57
2023-03-27T04:02:43.696Z,4.67
2023-03-27T04:03:45.536Z,4.50
2023-03-27T04:04:47.241Z,4.50
2023-03-27T04:05:48.932Z,3.90
2023-03-27T04:06:51.076Z,4.50
2023-03-27T04:07:52.728Z,4.57
2023-03-27T04:08:54.284Z,4.47
2023-03-27T04:09:55.900Z,4.17
2023-03-27T04:10:57.678Z,4.20
2023-03-27T04:11:59.694Z,4.70
2023-03-27T04:13:01.612Z,4.33
2023-03-27T04:14:03.204Z,5.13
2023-03-27T04:15:05.506Z,4.70
2023-03-27T04:16:08.219Z,4.73
2023-03-27T04:17:10.228Z,5.60
2023-03-27T04:18:11.860Z,5.23
2023-03-27T04:19:13.597Z,4.77
2023-03-27T04:20:15.642Z,5.20
2023-03-27T04:21:17.659Z,5.33
2023-03-27T04:22:19.251Z,5.77
2023-03-27T04:23:20.767Z,5.30
2023-03-27T04:24:24.079Z,5.93
2023-03-27T04:25:26.416Z,6.03
2023-03-27T04:26:29.714Z,5.90
2023-03-27T04:27:31.652Z,6.03
2023-03-27T04:28:34.258Z,6.03
2023-03-27T04:29:36.282Z,5.63
2023-03-27T04:30:38.772Z,6.33
2023-03-27T04:31:40.449Z,5.90
2023-03-27T04:32:42.153Z,6.30
2023-03-27T04:33:46.436Z,6.60
2023-03-27T04:34:50.344Z,6.73
2023-03-27T04:36:05.367Z,6.20
2023-03-27T04:37:08.564Z,5.27
2023-03-27T04:38:10.249Z,6.07
2023-03-27T04:39:11.987Z,6.00
2023-03-27T04:40:16.021Z,5.87
2023-03-27T04:41:17.984Z,6.20
2023-03-27T04:42:23.473Z,5.57
2023-03-27T04:43:26.207Z,6.03
2023-03-27T04:44:27.778Z,6.67
2023-03-27T04:45:29.395Z,6.83
2023-03-27T04:46:31.327Z,6.30
2023-03-27T04:47:37.787Z,6.00
2023-03-27T04:48:39.565Z,5.90
2023-03-27T04:49:43.051Z,6.30
2023-03-27T04:50:49.290Z,5.90
2023-03-27T04:51:51.272Z,5.67
2023-03-27T04:52:58.554Z,5.43
2023-03-27T04:54:00.143Z,5.77
2023-03-27T04:55:02.154Z,5.10
2023-03-27T04:56:05.514Z,5.30
2023-03-27T04:57:07.617Z,5.40
2023-03-27T04:58:09.224Z,5.50
2023-03-27T04:59:10.750Z,5.87
2023-03-27T05:00:19.793Z,5.70
2023-03-27T05:01:22.797Z,5.63
2023-03-27T05:02:26.604Z,6.20
2023-03-27T05:03:28.562Z,5.67
2023-03-27T05:04:32.029Z,5.43
2023-03-27T05:05:34.766Z,5.90
2023-03-27T05:06:37.443Z,5.97
2023-03-27T05:07:40.258Z,5.03
2023-03-27T05:08:41.807Z,5.90
2023-03-27T05:09:43.389Z,6.17
2023-03-27T05:10:46.495Z,5.30
2023-03-27T05:11:50.227Z,5.57
2023-03-27T05:12:54.425Z,5.43
2023-03-27T05:13:56.824Z,5.57
2023-03-27T05:14:59.300Z,6.30
2023-03-27T05:16:01.872Z,6.00
2023-03-27T05:17:03.551Z,6.10
2023-03-27T05:18:07.209Z,6.10
2023-03-27T05:19:09.391Z,6.13
2023-03-27T05:20:14.712Z,5.43
2023-03-27T05:21:16.791Z,6.80
2023-03-27T05:22:18.346Z,7.37
2023-03-27T05:23:19.918Z,6.60
2023-03-27T05:24:21.493Z,6.43
2023-03-27T05:25:23.488Z,25.90
2023-03-27T05:26:25.043Z,10.73
2023-03-27T05:27:26.547Z,8.57
2023-03-27T05:28:29.349Z,8.00
2023-03-27T05:29:31.057Z,7.30
2023-03-27T05:30:48.805Z,6.77
2023-03-27T05:31:50.560Z,7.50
2023-03-27T05:32:53.592Z,8.37
2023-03-27T05:33:55.359Z,7.97
2023-03-27T05:34:56.882Z,7.97
2023-03-27T05:35:58.698Z,7.43
2023-03-27T05:37:05.749Z,7.53
2023-03-27T05:38:08.264Z,7.23
2023-03-27T05:39:09.815Z,7.83
2023-03-27T05:40:11.680Z,8.20
2023-03-27T05:41:15.878Z,8.23
2023-03-27T05:42:17.492Z,8.53
2023-03-27T05:43:20.471Z,9.37
2023-03-27T05:44:23.568Z,8.57
2023-03-27T05:45:26.134Z,8.23
2023-03-27T05:46:27.798Z,7.43
2023-03-27T05:47:29.371Z,8.20
2023-03-27T05:48:31.016Z,8.17
2023-03-27T05:49:34.169Z,8.43
2023-03-27T05:50:35.992Z,9.47
2023-03-27T05:51:37.523Z,9.40
2023-03-27T05:52:39.109Z,9.80
2023-03-27T05:53:40.708Z,9.83
2023-03-27T05:54:42.267Z,8.30
2023-03-27T05:55:44.347Z,7.80
2023-03-27T05:56:46.611Z,7.50
2023-03-27T05:57:48.209Z,7.17
2023-03-27T05:58:49.744Z,8.67
2023-03-27T05:59:51.300Z,9.37
2023-03-27T06:00:52.892Z,9.37
2023-03-27T06:01:54.541Z,9.07
2023-03-27T06:03:02.493Z,8.57
2023-03-27T06:04:04.510Z,8.10
2023-03-27T06:05:10.630Z,8.67
2023-03-27T06:06:12.827Z,7.60
2023-03-27T06:07:14.968Z,6.60
2023-03-27T06:08:17.005Z,6.97
2023-03-27T06:09:18.577Z,6.90
2023-03-27T06:10:23.169Z,6.70
2023-03-27T06:11:25.116Z,7.40
2023-03-27T06:12:26.674Z,4.93
2023-03-27T06:13:28.609Z,5.37
2023-03-27T06:14:30.429Z,4.90
2023-03-27T06:15:33.684Z,5.50
2023-03-27T06:16:35.559Z,5.10
2023-03-27T06:17:40.225Z,5.20
2023-03-27T06:18:41.850Z,5.50
2023-03-27T06:19:43.442Z,5.00
2023-03-27T06:20:44.987Z,5.67
2023-03-27T06:21:46.947Z,4.93
2023-03-27T06:22:55.616Z,3.93
2023-03-27T06:23:57.230Z,4.30
2023-03-27T06:24:58.763Z,5.03
2023-03-27T06:26:00.375Z,5.40
2023-03-27T06:27:02.937Z,5.37
2023-03-27T06:28:08.114Z,4.97
2023-03-27T06:29:09.657Z,4.60
2023-03-27T06:30:13.553Z,5.03
2023-03-27T06:31:15.210Z,4.00
2023-03-27T06:32:17.059Z,4.70
2023-03-27T06:33:18.605Z,4.13
2023-03-27T06:34:20.202Z,4.50
2023-03-27T06:35:21.940Z,4.40
2023-03-27T06:36:24.991Z,3.90
2023-03-27T06:37:26.565Z,4.90
2023-03-27T06:38:32.134Z,5.17
2023-03-27T06:39:33.801Z,4.57
2023-03-27T06:40:35.518Z,3.80
2023-03-27T06:41:37.081Z,5.03
2023-03-27T06:42:38.586Z,4.23
2023-03-27T06:43:40.189Z,4.47
2023-03-27T06:44:41.678Z,4.63
2023-03-27T06:45:46.194Z,4.63
2023-03-27T06:46:47.976Z,4.83
2023-03-27T06:47:54.818Z,4.40
2023-03-27T06:48:57.156Z,4.67
2023-03-27T06:49:58.699Z,4.13
2023-03-27T06:51:00.410Z,4.57
2023-03-27T06:52:02.924Z,4.77
2023-03-27T06:53:10.056Z,4.80
2023-03-27T06:54:17.474Z,4.40
2023-03-27T06:55:20.392Z,3.60
2023-03-27T06:56:21.943Z,3.40
2023-03-27T06:57:23.494Z,4.23
2023-03-27T06:58:25.233Z,3.43
2023-03-27T06:59:26.863Z,4.40
2023-03-27T07:00:31.597Z,3.60
2023-03-27T07:01:33.457Z,4.23
2023-03-27T07:02:35.083Z,3.90
2023-03-27T07:03:36.653Z,3.67
2023-03-27T07:04:38.420Z,4.07
2023-03-27T07:05:40.898Z,3.90
2023-03-27T07:06:43.188Z,3.83
2023-03-27T07:07:45.153Z,3.77
2023-03-27T07:08:48.918Z,4.00
2023-03-27T07:09:50.873Z,4.03
2023-03-27T07:11:07.962Z,4.33
2023-03-27T07:12:12.780Z,3.80
2023-03-27T07:13:15.662Z,4.20
2023-03-27T07:14:17.213Z,4.03
2023-03-27T07:15:20.375Z,4.03
2023-03-27T07:16:21.982Z,4.27
2023-03-27T07:17:25.316Z,4.27
2023-03-27T07:18:26.935Z,3.70
2023-03-27T07:19:28.562Z,3.73
2023-03-27T07:20:31.727Z,4.47
2023-03-27T07:21:33.290Z,2.73
2023-03-27T07:22:34.849Z,3.80
2023-03-27T07:23:36.794Z,2.90
2023-03-27T07:24:38.436Z,3.00
2023-03-27T07:25:40.622Z,3.53
2023-03-27T07:26:42.136Z,3.40
2023-03-27T07:27:43.722Z,3.53
2023-03-27T07:28:45.387Z,3.50
2023-03-27T07:29:47.208Z,2.80
2023-03-27T07:30:48.786Z,3.30
2023-03-27T07:32:55.194Z,2.63
2023-03-27T07:33:57.986Z,2.47
2023-03-27T07:34:59.617Z,3.10
2023-03-27T07:36:06.783Z,3.87
2023-03-27T07:37:08.450Z,3.87
2023-03-27T07:38:11.563Z,3.70
2023-03-27T07:39:14.281Z,3.77
2023-03-27T07:40:29.534Z,3.50
2023-03-27T07:41:35.031Z,3.67
2023-03-27T07:42:36.648Z,3.40
2023-03-27T07:43:38.179Z,3.67
2023-03-27T07:44:39.745Z,3.70
2023-03-27T07:45:42.094Z,3.70
2023-03-27T07:46:43.755Z,3.30
2023-03-27T07:47:46.938Z,3.27
2023-03-27T07:48:49.129Z,3.50
2023-03-27T07:49:51.042Z,3.40
2023-03-27T07:50:56.114Z,3.60
2023-03-27T07:52:00.534Z,3.10
2023-03-27T07:53:02.079Z,3.07
2023-03-27T07:54:04.514Z,3.20
2023-03-27T07:55:07.756Z,2.70
2023-03-27T07:56:10.565Z,3.57
2023-03-27T07:57:13.821Z,3.63
2023-03-27T07:58:15.565Z,3.57
2023-03-27T07:59:17.369Z,3.50
2023-03-27T08:00:19.941Z,3.63
2023-03-27T08:01:21.564Z,3.37
2023-03-27T08:02:25.027Z,3.43
2023-03-27T08:03:28.230Z,3.80
2023-03-27T08:04:30.062Z,4.00
2023-03-27T08:05:31.649Z,2.83
2023-03-27T08:06:33.345Z,3.20
2023-03-27T08:07:36.252Z,3.33
2023-03-27T08:08:37.937Z,3.80
2023-03-27T08:09:39.575Z,3.73
2023-03-27T08:10:41.578Z,3.90
2023-03-27T08:11:44.296Z,3.70
2023-03-27T08:12:45.941Z,3.97
2023-03-27T08:13:47.713Z,3.70
2023-03-27T08:14:49.292Z,3.93
2023-03-27T08:15:51.345Z,3.90
2023-03-27T08:16:54.359Z,3.60
2023-03-27T08:17:59.426Z,3.77
2023-03-27T08:19:03.077Z,4.40
2023-03-27T08:20:09.367Z,3.00
2023-03-27T08:21:11.799Z,3.03
2023-03-27T08:22:13.989Z,3.10
2023-03-27T08:23:16.402Z,2.90
2023-03-27T08:24:18.005Z,2.60
2023-03-27T08:25:22.617Z,3.00
2023-03-27T08:26:26.584Z,3.23
2023-03-27T08:27:28.149Z,2.53
2023-03-27T08:28:34.416Z,2.70
2023-03-27T08:29:35.997Z,2.30
2023-03-27T08:30:37.669Z,2.80
2023-03-27T08:31:39.500Z,2.63
2023-03-27T08:32:42.211Z,2.57
2023-03-27T08:33:43.858Z,3.30
2023-03-27T08:34:45.848Z,2.20
2023-03-27T08:35:48.808Z,2.80
2023-03-27T08:36:50.425Z,2.67
2023-03-27T08:37:52.823Z,3.93
2023-03-27T08:38:55.393Z,2.93
2023-03-27T08:39:58.985Z,3.33
2023-03-27T08:41:03.629Z,2.30
2023-03-27T08:42:08.623Z,3.87
2023-03-27T08:43:16.864Z,3.93
2023-03-27T08:44:21.359Z,3.30
2023-03-27T08:45:28.108Z,2.77
2023-03-27T08:46:37.558Z,2.87
2023-03-27T08:47:44.659Z,2.87
2023-03-27T08:48:53.957Z,3.00
2023-03-27T08:50:00.621Z,3.03
2023-03-27T08:51:06.929Z,3.13
2023-03-27T08:52:22.668Z,3.67
2023-03-27T08:54:00.315Z,3.47
2023-03-27T08:55:33.729Z,3.53
2023-03-27T08:56:37.424Z,3.57
2023-03-27T08:57:39.061Z,3.80
2023-03-27T08:58:41.738Z,3.27
2023-03-27T08:59:43.363Z,3.10
2023-03-27T09:00:47.445Z,3.30
2023-03-27T09:02:10.804Z,3.27
2023-03-27T09:03:43.595Z,3.90
2023-03-27T09:05:01.685Z,3.40
2023-03-27T09:06:11.620Z,3.00
2023-03-27T09:07:19.878Z,4.07
2023-03-27T09:08:49.672Z,4.10
2023-03-27T09:10:00.167Z,3.60
2023-03-27T09:11:52.079Z,4.00
2023-03-27T09:12:54.517Z,2.87
2023-03-27T09:13:56.582Z,3.50
2023-03-27T09:15:09.787Z,3.70
2023-03-27T09:16:19.764Z,3.97
2023-03-27T09:17:27.254Z,4.07
2023-03-27T09:18:54.265Z,3.50
2023-03-27T09:20:18.269Z,3.80
2023-03-27T09:21:35.060Z,3.70
2023-03-27T09:22:45.919Z,3.83
2023-03-27T09:23:48.777Z,3.40
2023-03-27T09:24:54.245Z,3.80
2023-03-27T09:26:01.124Z,3.03
2023-03-27T09:27:27.425Z,3.70
2023-03-27T09:28:35.838Z,4.03
2023-03-27T09:29:41.423Z,3.03
2023-03-27T09:30:43.021Z,3.70
2023-03-27T09:31:53.689Z,3.97
2023-03-27T09:33:03.627Z,3.67
2023-03-27T09:34:09.020Z,4.23
2023-03-27T09:35:20.339Z,3.70
2023-03-27T09:36:24.680Z,4.00
2023-03-27T09:37:28.139Z,3.83
2023-03-27T09:38:37.545Z,3.83
2023-03-27T09:39:44.132Z,5.03
2023-03-27T09:40:54.645Z,4.10
2023-03-27T09:42:07.426Z,3.50
2023-03-27T09:43:17.586Z,3.93
2023-03-27T09:44:34.417Z,2.97
2023-03-27T09:45:39.288Z,3.47
2023-03-27T09:46:45.819Z,3.27
2023-03-27T09:48:12.065Z,3.73
2023-03-27T09:49:16.237Z,4.17
2023-03-27T09:50:41.450Z,4.23
2023-03-27T09:51:48.757Z,3.97
2023-03-27T09:52:52.333Z,4.53
2023-03-27T09:53:58.786Z,4.37
2023-03-27T09:55:00.719Z,3.70
2023-03-27T09:56:06.305Z,3.90
2023-03-27T09:57:12.624Z,4.60
2023-03-27T09:58:41.061Z,4.13
2023-03-27T10:00:01.233Z,3.40
2023-03-27T10:01:36.129Z,4.10
2023-03-27T10:02:37.882Z,5.07
2023-03-27T10:03:49.036Z,4.00
2023-03-27T10:05:11.939Z,4.50
2023-03-27T10:06:16.556Z,4.20
2023-03-27T10:07:25.754Z,4.13
2023-03-27T10:08:40.778Z,4.70
2023-03-27T10:09:42.852Z,4.47
2023-03-27T10:10:45.937Z,4.60
2023-03-27T10:11:50.822Z,4.13
2023-03-27T10:12:58.335Z,3.97
2023-03-27T10:14:02.177Z,4.20
2023-03-27T10:15:06.952Z,2.90
2023-03-27T10:16:08.996Z,4.27
2023-03-27T10:17:33.250Z,5.40
2023-03-27T10:18:43.462Z,4.43
2023-03-27T10:19:47.237Z,4.33
2023-03-27T10:20:54.299Z,5.90
2023-03-27T10:22:00.538Z,4.60
2023-03-27T10:23:22.751Z,3.50
2023-03-27T10:24:33.451Z,4.53
2023-03-27T10:25:39.376Z,5.17
2023-03-27T10:26:41.034Z,4.57
2023-03-27T10:27:43.818Z,4.80
2023-03-27T10:28:52.641Z,4.20
2023-03-27T10:29:54.207Z,5.00
2023-03-27T10:31:24.070Z,4.87
2023-03-27T10:32:52.871Z,4.70
2023-03-27T10:33:54.429Z,4.37
2023-03-27T10:34:58.279Z,4.37
2023-03-27T10:36:00.582Z,5.40
2023-03-27T10:37:17.629Z,4.90
2023-03-27T10:38:22.550Z,5.00
2023-03-27T10:39:35.073Z,3.93
2023-03-27T10:40:39.549Z,4.80
2023-03-27T10:41:41.402Z,4.57
2023-03-27T10:42:43.155Z,4.93
2023-03-27T10:43:47.227Z,5.20
2023-03-27T10:44:49.405Z,4.73
2023-03-27T10:45:58.986Z,5.13
2023-03-27T10:47:01.000Z,4.80
2023-03-27T10:48:07.009Z,5.03
2023-03-27T10:49:32.459Z,4.83
2023-03-27T10:50:53.505Z,4.40
2023-03-27T10:52:20.387Z,4.50
2023-03-27T10:53:33.258Z,4.77
2023-03-27T10:54:51.286Z,4.77
2023-03-27T10:56:13.864Z,4.50
2023-03-27T10:57:24.278Z,4.80
2023-03-27T10:58:35.285Z,5.60
2023-03-27T10:59:57.030Z,4.37
2023-03-27T11:01:11.605Z,5.03
2023-03-27T11:02:42.146Z,4.80
2023-03-27T11:03:58.491Z,4.97
2023-03-27T11:05:08.284Z,4.90
2023-03-27T11:06:16.549Z,5.90
2023-03-27T11:07:27.262Z,5.30
2023-03-27T11:08:36.239Z,5.43
2023-03-27T11:09:47.345Z,5.37
2023-03-27T11:10:50.215Z,5.23
2023-03-27T11:11:57.758Z,5.30
2023-03-27T11:13:17.585Z,4.27
2023-03-27T11:14:38.826Z,5.20
2023-03-27T11:15:46.100Z,4.87
2023-03-27T11:16:58.710Z,5.97
2023-03-27T11:18:06.998Z,5.73
2023-03-27T11:19:11.422Z,4.90
2023-03-27T11:20:30.212Z,5.80
2023-03-27T11:21:44.129Z,5.33
2023-03-27T11:22:55.062Z,5.73
2023-03-27T11:23:58.722Z,6.20
2023-03-27T11:25:04.258Z,6.23
2023-03-27T11:26:07.578Z,6.30
2023-03-27T11:27:23.386Z,6.30
2023-03-27T11:28:43.528Z,5.83
2023-03-27T11:30:30.267Z,6.00
2023-03-27T11:31:44.245Z,3.70
2023-03-27T11:32:58.782Z,2.93
2023-03-27T11:34:32.517Z,2.33
2023-03-27T11:35:39.428Z,2.53
2023-03-27T11:36:52.034Z,2.20
2023-03-27T11:38:03.524Z,2.33
2023-03-27T11:39:23.670Z,2.27
2023-03-27T11:40:46.566Z,2.30
2023-03-27T11:41:57.820Z,2.80
2023-03-27T11:42:59.931Z,2.70
2023-03-27T11:44:01.618Z,2.80
2023-03-27T11:45:07.328Z,2.23
2023-03-27T11:46:08.968Z,2.60
2023-03-27T11:47:32.567Z,2.50
2023-03-27T11:49:15.018Z,2.47
2023-03-27T11:50:25.090Z,2.63
2023-03-27T11:51:51.214Z,2.77
2023-03-27T11:53:12.248Z,2.40
2023-03-27T11:54:41.428Z,2.53
2023-03-27T11:56:04.952Z,2.57
2023-03-27T11:57:22.136Z,3.10
2023-03-27T11:58:40.491Z,2.83
2023-03-27T11:59:48.529Z,3.07
2023-03-27T12:00:58.907Z,2.80
2023-03-27T12:02:21.381Z,3.20
2023-03-27T12:03:43.658Z,2.80
2023-03-27T12:04:52.255Z,3.43
2023-03-27T12:06:16.403Z,3.00
2023-03-27T12:07:59.365Z,2.57
2023-03-27T12:09:20.792Z,2.33
2023-03-27T12:10:29.146Z,1.90
2023-03-27T12:11:31.254Z,1.63
2023-03-27T12:12:46.612Z,1.73
2023-03-27T12:14:18.432Z,1.80
2023-03-27T12:15:42.649Z,2.03
2023-03-27T12:16:56.393Z,2.10
2023-03-27T12:18:06.947Z,1.60
2023-03-27T12:19:31.195Z,1.40
2023-03-27T12:20:43.515Z,1.63
2023-03-27T12:22:25.555Z,1.50
2023-03-27T12:24:02.359Z,1.07
2023-03-27T12:25:40.793Z,1.00
2023-03-27T12:26:48.243Z,1.10
2023-03-27T12:28:01.338Z,0.90
2023-03-27T12:29:29.048Z,0.90
2023-03-27T12:30:41.376Z,0.90
2023-03-27T12:32:14.159Z,1.53
2023-03-27T12:33:32.826Z,1.17
2023-03-27T12:34:42.904Z,1.03
2023-03-27T12:35:51.948Z,0.70
2023-03-27T12:36:53.948Z,0.73
2023-03-27T12:38:18.773Z,0.63
2023-03-27T12:39:24.506Z,0.60
2023-03-27T12:40:52.337Z,0.50
2023-03-27T12:41:53.869Z,0.60
2023-03-27T12:43:06.002Z,0.63
2023-03-27T12:44:13.364Z,0.57
2023-03-27T12:45:23.865Z,0.40
2023-03-27T12:46:26.508Z,0.60
2023-03-27T12:47:29.696Z,0.50
2023-03-27T12:48:31.324Z,0.40
2023-03-27T12:50:00.243Z,0.67
2023-03-27T12:51:12.854Z,0.37
2023-03-27T12:52:15.113Z,0.20
2023-03-27T12:53:39.989Z,0.30
2023-03-27T12:55:07.187Z,0.60
2023-03-27T12:56:17.716Z,0.80
2023-03-27T12:57:22.381Z,1.20
2023-03-27T12:58:33.891Z,1.80
2023-03-27T12:59:54.903Z,2.10
2023-03-27T13:01:03.037Z,2.23
2023-03-27T13:02:04.633Z,2.70
2023-03-27T13:03:52.756Z,5.20
2023-03-27T13:05:24.018Z,2.33
2023-03-27T13:06:43.372Z,2.83
2023-03-27T13:07:56.162Z,3.53
2023-03-27T13:09:09.671Z,3.73
2023-03-27T13:10:23.532Z,3.13
2023-03-27T13:11:38.368Z,3.03
2023-03-27T13:13:04.552Z,2.93
2023-03-27T13:14:11.877Z,5.03
2023-03-27T13:15:31.730Z,4.30
2023-03-27T13:17:11.549Z,2.10
2023-03-27T13:18:38.269Z,1.87
2023-03-27T13:19:52.115Z,1.73
2023-03-27T13:21:08.693Z,1.57
2023-03-27T13:22:47.631Z,2.00
2023-03-27T13:23:59.368Z,2.60
2023-03-27T13:25:48.679Z,2.60
2023-03-27T13:27:01.550Z,3.50
2023-03-27T13:28:37.233Z,3.70
2023-03-27T13:29:39.278Z,4.63
2023-03-27T13:30:50.311Z,4.67
2023-03-27T13:32:31.152Z,4.27
2023-03-27T13:33:35.810Z,3.20
2023-03-27T13:34:41.994Z,1.83
2023-03-27T13:36:32.292Z,2.23
2023-03-27T13:37:36.476Z,1.77
2023-03-27T13:38:53.357Z,2.20
2023-03-27T13:40:10.212Z,2.73
2023-03-27T13:41:47.767Z,3.50
2023-03-27T13:43:03.732Z,7.03
2023-03-27T13:44:10.762Z,2.63
2023-03-27T13:45:35.847Z,2.83
2023-03-27T13:46:39.397Z,1.90
2023-03-27T13:47:46.879Z,2.00
2023-03-27T13:49:30.711Z,2.93
2023-03-27T13:50:52.156Z,3.10
2023-03-27T13:52:14.581Z,3.70
2023-03-27T13:54:06.766Z,3.60
2023-03-27T13:55:28.018Z,3.73
2023-03-27T13:56:44.892Z,3.97
2023-03-27T13:58:14.070Z,3.43
2023-03-27T13:59:33.560Z,2.67
2023-03-27T14:00:50.352Z,2.23
2023-03-27T14:02:17.037Z,2.10
2023-03-27T14:03:18.652Z,2.10
2023-03-27T14:04:47.570Z,2.43
2023-03-27T14:06:03.143Z,3.20
2023-03-27T14:07:36.693Z,3.00
2023-03-27T14:08:44.292Z,2.23
2023-03-27T14:10:10.384Z,2.60
2023-03-27T14:11:23.753Z,2.70
2023-03-27T14:13:09.774Z,2.60
2023-03-27T14:14:25.857Z,2.30
2023-03-27T14:15:48.847Z,1.83
2023-03-27T14:17:11.914Z,1.70
2023-03-27T14:18:47.232Z,1.63
2023-03-27T14:20:23.094Z,1.70
2023-03-27T14:21:36.142Z,2.00
2023-03-27T14:22:56.827Z,2.30
2023-03-27T14:24:19.662Z,2.03
2023-03-27T14:25:25.994Z,2.53
2023-03-27T14:26:30.434Z,2.57
2023-03-27T14:27:34.560Z,3.10
2023-03-27T14:28:58.789Z,2.40
2023-03-27T14:30:07.236Z,2.80
2023-03-27T14:31:11.334Z,2.20
2023-03-27T14:32:17.467Z,5.40
2023-03-27T14:33:20.073Z,3.70
2023-03-27T14:34:25.529Z,4.03
2023-03-27T14:35:41.155Z,3.33
2023-03-27T14:36:46.021Z,3.50
2023-03-27T14:37:55.805Z,3.60
2023-03-27T14:39:02.277Z,2.27
2023-03-27T14:40:20.576Z,2.57
2023-03-27T14:41:26.880Z,2.90
2023-03-27T14:42:32.818Z,2.20
2023-03-27T14:43:34.908Z,2.13
2023-03-27T14:44:36.432Z,1.40
2023-03-27T14:45:40.786Z,1.53
2023-03-27T14:46:48.315Z,1.50
2023-03-27T14:47:53.983Z,1.53
2023-03-27T14:48:59.715Z,1.60
2023-03-27T14:50:02.508Z,1.20
2023-03-27T14:51:10.258Z,1.63
2023-03-27T14:52:22.054Z,1.50
2023-03-27T14:53:26.999Z,1.63
2023-03-27T14:54:29.535Z,1.70
2023-03-27T14:55:36.849Z,3.17
2023-03-27T14:56:47.265Z,4.27
2023-03-27T14:57:51.464Z,3.43
2023-03-27T14:58:56.656Z,2.97
2023-03-27T14:59:58.925Z,2.57
2023-03-27T15:01:01.783Z,3.30
2023-03-27T15:02:06.059Z,3.77
2023-03-27T15:03:14.898Z,4.40
2023-03-27T15:04:17.220Z,5.47
2023-03-27T15:05:22.518Z,5.43
2023-03-27T15:06:26.778Z,4.50
2023-03-27T15:07:34.299Z,4.30
2023-03-27T15:08:38.783Z,4.20
2023-03-27T15:09:40.431Z,6.10
2023-03-27T15:10:51.083Z,5.63
2023-03-27T15:11:56.160Z,3.53
2023-03-27T15:12:58.090Z,2.43
2023-03-27T15:14:02.829Z,3.53
2023-03-27T15:15:06.531Z,3.20